Time;durP1;ratioP1;P1;durP2;ratioP2;P2;SDS_P1;SDS_P2;PMS_P1;PMS_P2;Temp;Humidity;BMP_temperature;BMP_pressure;BME280_temperature;BME280_humidity;BME280_pressure;Samples;Min_cycle;Max_cycle;Signal;HPM_P1;HPM_P2
2022/03/07 00:00:11;;;;;;;26.50;14.50;;;;;;;-2.00;69.45;98852.03;105768;1280;137653;-71
2022/03/07 00:02:57;;;;;;;35.70;19.10;;;;;;;-1.99;69.41;98853.51;105787;1280;25269;-72
2022/03/07 00:05:24;;;;;;;30.20;15.50;;;;;;;-2.01;68.80;98859.29;105708;1280;137652;-71
2022/03/07 00:07:50;;;;;;;35.80;18.20;;;;;;;-2.05;68.97;98854.66;105729;1280;23932;-71
2022/03/07 00:10:17;;;;;;;34.20;17.60;;;;;;;-2.07;69.08;98856.36;105871;1280;138086;-72
2022/03/07 00:12:43;;;;;;;27.70;15.70;;;;;;;-2.12;69.37;98854.27;105930;1280;24092;-72
2022/03/07 00:15:09;;;;;;;27.70;15.90;;;;;;;-2.14;69.41;98857.38;105879;1280;24409;-72
2022/03/07 00:17:36;;;;;;;30.70;18.20;;;;;;;-2.15;69.56;98855.67;105838;1280;138063;-72
2022/03/07 00:20:04;;;;;;;31.90;17.60;;;;;;;-2.16;69.61;98856.77;106022;1280;22673;-72
2022/03/07 00:22:30;;;;;;;27.40;14.80;;;;;;;-2.16;69.62;98857.58;105920;1280;138180;-72
2022/03/07 00:24:57;;;;;;;30.70;17.40;;;;;;;-2.19;69.48;98857.64;105924;1280;23924;-72
2022/03/07 00:27:23;;;;;;;33.70;16.80;;;;;;;-2.20;69.86;98855.96;105890;1280;22566;-72
2022/03/07 00:29:49;;;;;;;24.30;14.20;;;;;;;-2.21;70.07;98855.92;106004;1280;137844;-72
2022/03/07 00:32:15;;;;;;;34.10;18.40;;;;;;;-2.23;69.52;98858.05;105833;1280;24316;-72
2022/03/07 00:34:42;;;;;;;33.30;18.60;;;;;;;-2.24;69.72;98857.86;105757;1280;138566;-72
2022/03/07 00:37:09;;;;;;;31.70;17.30;;;;;;;-2.24;70.22;98861.53;106066;1280;25273;-72
2022/03/07 00:39:35;;;;;;;31.80;18.00;;;;;;;-2.25;69.98;98853.98;106002;1280;25681;-72
2022/03/07 00:42:02;;;;;;;32.00;16.90;;;;;;;-2.25;69.97;98849.98;105688;1280;137939;-72
2022/03/07 00:44:28;;;;;;;30.30;17.30;;;;;;;-2.28;70.01;98850.94;106198;1280;22604;-72
2022/03/07 00:46:54;;;;;;;24.00;14.00;;;;;;;-2.30;70.05;98850.77;105585;1280;137846;-73
2022/03/07 00:49:21;;;;;;;26.50;14.00;;;;;;;-2.33;70.37;98845.13;105940;1280;22642;-72
2022/03/07 00:51:50;;;;;;;28.00;17.50;;;;;;;-2.34;70.50;98847.57;105968;1280;25558;-72
2022/03/07 00:54:16;;;;;;;28.20;15.20;;;;;;;-2.34;70.89;98848.48;105833;1280;137429;-72
2022/03/07 00:56:44;;;;;;;32.00;15.90;;;;;;;-2.35;70.83;98850.86;106063;1280;23958;-72
2022/03/07 00:59:10;;;;;;;25.80;13.80;;;;;;;-2.37;70.99;98851.11;105931;1280;138132;-73
2022/03/07 01:01:37;;;;;;;29.30;15.50;;;;;;;-2.42;71.28;98845.36;106052;1280;23095;-73
2022/03/07 01:04:04;;;;;;;33.10;17.00;;;;;;;-2.46;71.33;98844.75;105714;1280;138422;-73
2022/03/07 01:06:30;;;;;;;25.40;15.20;;;;;;;-2.49;71.70;98843.23;105906;1280;22559;-73
2022/03/07 01:08:56;;;;;;;35.40;18.20;;;;;;;-2.52;71.80;98842.27;106013;1280;22584;-73
2022/03/07 01:11:22;;;;;;;30.40;17.20;;;;;;;-2.56;72.05;98842.79;105701;1281;137658;-73
2022/03/07 01:14:03;;;;;;;25.40;13.50;;;;;;;-2.58;72.46;98845.73;105920;1280;22586;-72
2022/03/07 01:16:29;;;;;;;36.70;19.20;;;;;;;-2.64;72.46;98846.84;105782;1280;138418;-73
2022/03/07 01:18:56;;;;;;;22.60;13.20;;;;;;;-2.68;72.91;98847.25;105827;1280;24357;-73
2022/03/07 01:21:22;;;;;;;27.60;15.40;;;;;;;-2.74;73.43;98845.81;105760;1280;25446;-73
2022/03/07 01:23:48;;;;;;;28.10;16.50;;;;;;;-2.78;73.97;98847.16;105833;1280;137892;-73
2022/03/07 01:26:15;;;;;;;32.70;16.40;;;;;;;-2.83;74.06;98845.85;105995;1280;22784;-72
2022/03/07 01:28:41;;;;;;;34.40;17.40;;;;;;;-2.87;74.54;98835.85;105709;1280;138186;-73
2022/03/07 01:31:09;;;;;;;28.00;15.40;;;;;;;-2.88;74.65;98837.94;105900;1280;22555;-73
2022/03/07 01:33:35;;;;;;;31.80;17.00;;;;;;;-2.88;74.84;98833.51;105839;1280;25344;-72
2022/03/07 01:36:01;;;;;;;31.50;17.50;;;;;;;-2.88;75.08;98833.94;105962;1280;137715;-72
2022/03/07 01:38:27;;;;;;;31.00;17.00;;;;;;;-2.91;75.11;98832.77;105842;1280;23418;-72
2022/03/07 01:40:54;;;;;;;31.80;16.70;;;;;;;-2.93;75.54;98833.69;105721;1280;139268;-73
2022/03/07 01:43:20;;;;;;;31.80;16.90;;;;;;;-2.96;75.38;98839.58;105798;1280;23377;-72
2022/03/07 01:45:47;;;;;;;29.80;15.50;;;;;;;-2.97;75.18;98839.51;106028;1280;24356;-73
2022/03/07 01:48:13;;;;;;;29.10;16.60;;;;;;;-2.99;75.43;98841.52;105729;1280;137484;-73
2022/03/07 01:50:41;;;;;;;30.20;16.50;;;;;;;-3.01;75.61;98839.41;105934;1280;22553;-72
2022/03/07 01:53:09;;;;;;;34.10;18.20;;;;;;;-3.06;76.02;98838.07;106018;1280;138182;-73
2022/03/07 01:55:35;;;;;;;27.90;16.60;;;;;;;-3.07;75.72;98834.32;105833;1280;25245;-72
2022/03/07 01:58:04;;;;;;;33.90;18.50;;;;;;;-3.07;76.29;98837.52;105834;1280;138997;-72
2022/03/07 02:00:30;;;;;;;34.70;18.30;;;;;;;-3.07;76.51;98836.39;105783;1280;22601;-73
2022/03/07 02:02:57;;;;;;;36.30;18.40;;;;;;;-3.07;76.33;98831.30;105970;1281;24378;-72
2022/03/07 02:05:43;;;;;;;33.80;18.10;;;;;;;-3.09;75.91;98832.13;105836;1280;137696;-73
2022/03/07 02:08:16;;;;;;;35.80;19.90;;;;;;;-3.10;75.98;98828.56;106130;1280;25633;-73
2022/03/07 02:10:48;;;;;;;30.90;18.10;;;;;;;-3.09;75.95;98827.88;105800;1280;138585;-72
2022/03/07 02:13:18;;;;;;;32.60;18.50;;;;;;;-3.08;76.20;98825.98;105876;1280;22819;-72
2022/03/07 02:16:17;;;;;;;33.10;16.80;;;;;;;-3.06;76.02;98819.42;105598;1281;138585;-72
2022/03/07 02:18:45;;;;;;;31.40;17.40;;;;;;;-3.07;75.86;98815.61;105814;1281;25460;-72
2022/03/07 02:21:18;;;;;;;35.20;20.60;;;;;;;-3.07;76.04;98816.94;105874;1281;24239;-72
2022/03/07 02:23:59;;;;;;;35.10;18.70;;;;;;;-3.07;75.92;98810.81;105856;1281;138394;-74
2022/03/07 02:26:26;;;;;;;30.10;17.40;;;;;;;-3.04;75.87;98808.68;105833;1281;24040;-72
2022/03/07 02:28:52;;;;;;;33.70;17.80;;;;;;;-3.02;75.55;98805.11;105642;1280;138677;-72
2022/03/07 02:31:21;;;;;;;32.70;17.90;;;;;;;-3.01;75.56;98807.67;105728;1280;22617;-72
2022/03/07 02:33:49;;;;;;;30.80;16.40;;;;;;;-3.01;75.27;98800.05;106066;1280;25213;-72
2022/03/07 02:36:18;;;;;;;34.20;17.50;;;;;;;-3.02;75.08;98802.05;106094;1279;137446;-72
2022/03/07 02:38:44;;;;;;;32.40;18.40;;;;;;;-3.03;74.72;98802.73;105801;1281;22554;-72
2022/03/07 02:41:11;;;;;;;40.10;22.10;;;;;;;-3.04;74.40;98801.16;105976;1281;138755;-72
2022/03/07 02:43:37;;;;;;;35.20;18.80;;;;;;;-3.01;74.21;98797.90;105954;1281;22565;-72
2022/03/07 02:46:05;;;;;;;33.00;18.60;;;;;;;-2.97;74.13;98795.14;105900;1281;137917;-72
2022/03/07 02:48:31;;;;;;;25.90;13.60;;;;;;;-2.94;74.01;98791.80;105708;1281;24462;-72
2022/03/07 02:50:58;;;;;;;34.90;18.20;;;;;;;-2.91;73.86;98793.30;105874;1280;25497;-72
2022/03/07 02:53:26;;;;;;;33.40;17.60;;;;;;;-2.91;73.62;98792.91;105891;1280;137948;-72
2022/03/07 02:55:54;;;;;;;32.10;17.10;;;;;;;-2.90;73.40;98786.48;106037;1279;22725;-72
2022/03/07 02:58:21;;;;;;;33.40;19.20;;;;;;;-2.89;73.11;98787.05;105826;1280;138430;-72
2022/03/07 03:00:48;;;;;;;28.10;17.50;;;;;;;-2.90;73.08;98780.40;105753;1280;25638;-72
2022/03/07 03:03:14;;;;;;;29.90;17.10;;;;;;;-2.90;72.20;98786.95;105734;1281;22602;-72
2022/03/07 03:05:40;;;;;;;35.30;19.90;;;;;;;-2.90;71.92;98786.99;105887;1281;138425;-72
2022/03/07 03:08:07;;;;;;;35.20;19.00;;;;;;;-2.90;71.67;98783.92;105992;1281;24561;-72
2022/03/07 03:10:33;;;;;;;28.30;15.90;;;;;;;-2.88;70.87;98786.43;105844;1279;139102;-72
2022/03/07 03:13:00;;;;;;;34.10;18.10;;;;;;;-2.87;70.16;98779.25;105946;1280;24550;-72
2022/03/07 03:15:26;;;;;;;29.90;16.00;;;;;;;-2.86;70.05;98780.25;105715;1280;25330;-71
2022/03/07 03:17:52;;;;;;;27.60;16.60;;;;;;;-2.86;68.93;98777.70;105767;1280;138031;-72
2022/03/07 03:20:19;;;;;;;32.40;17.50;;;;;;;-2.87;69.18;98780.09;105994;1280;22723;-71
2022/03/07 03:22:46;;;;;;;26.80;15.50;;;;;;;-2.88;68.73;98779.11;105907;1281;137787;-72
2022/03/07 03:25:17;;;;;;;25.50;14.70;;;;;;;-2.89;68.14;98778.20;105988;1279;22562;-72
2022/03/07 03:27:43;;;;;;;21.20;12.10;;;;;;;-2.92;66.88;98773.04;105904;1281;25514;-71
2022/03/07 03:30:12;;;;;;;28.40;16.00;;;;;;;-2.95;67.50;98775.27;105944;1280;138043;-72
2022/03/07 03:32:38;;;;;;;25.00;13.90;;;;;;;-2.98;67.47;98774.09;106001;1280;23619;-72
2022/03/07 03:35:05;;;;;;;21.30;11.70;;;;;;;-3.00;66.28;98773.13;105967;1280;138591;-72
2022/03/07 03:37:31;;;;;;;20.90;12.60;;;;;;;-3.03;65.73;98771.80;105972;1280;22693;-72
2022/03/07 03:39:57;;;;;;;30.30;15.90;;;;;;;-3.05;65.48;98768.22;105931;1280;138549;-72
2022/03/07 03:42:23;;;;;;;30.10;15.50;;;;;;;-3.07;65.81;98767.30;105865;1281;23870;-72
2022/03/07 03:44:50;;;;;;;24.70;15.10;;;;;;;-3.07;65.57;98765.55;105833;1281;25279;-72
2022/03/07 03:47:16;;;;;;;27.10;15.30;;;;;;;-3.08;65.35;98765.51;105631;1281;137975;-72
2022/03/07 03:49:43;;;;;;;29.20;15.10;;;;;;;-3.10;65.30;98768.86;105635;1281;25459;-72
2022/03/07 03:52:09;;;;;;;26.50;14.50;;;;;;;-3.12;65.48;98766.41;105809;1280;138864;-72
2022/03/07 03:54:36;;;;;;;31.10;17.00;;;;;;;-3.14;65.80;98769.95;105876;1281;25277;-72
2022/03/07 03:57:02;;;;;;;28.40;17.30;;;;;;;-3.15;65.91;98763.90;105882;1280;24258;-72
2022/03/07 03:59:29;;;;;;;22.30;12.80;;;;;;;-3.16;66.37;98768.23;105774;1280;138503;-72
2022/03/07 04:01:55;;;;;;;24.00;12.90;;;;;;;-3.18;66.17;98766.84;106085;1280;25279;-72
2022/03/07 04:04:21;;;;;;;25.80;15.00;;;;;;;-3.20;65.89;98771.29;105685;1281;138387;-72
2022/03/07 04:06:48;;;;;;;22.50;13.20;;;;;;;-3.20;64.56;98761.92;105974;1281;24306;-72
2022/03/07 04:09:16;;;;;;;17.80;12.50;;;;;;;-3.18;64.25;98759.69;105746;1281;24487;-72
2022/03/07 04:11:44;;;;;;;23.40;11.00;;;;;;;-3.15;62.76;98757.63;105722;1280;137925;-72
2022/03/07 04:14:11;;;;;;;27.10;13.90;;;;;;;-3.10;61.75;98759.86;105839;1280;23004;-72
2022/03/07 04:16:38;;;;;;;23.70;12.20;;;;;;;-3.06;62.64;98763.51;105826;1280;138098;-72
2022/03/07 04:19:06;;;;;;;21.40;12.30;;;;;;;-3.03;62.71;98762.91;105795;1280;24239;-72
2022/03/07 04:21:34;;;;;;;24.80;13.80;;;;;;;-3.03;61.59;98764.07;105704;1281;24753;-72
2022/03/07 04:24:01;;;;;;;26.10;14.80;;;;;;;-3.01;61.80;98760.24;105582;1281;137997;-72
2022/03/07 04:26:28;;;;;;;27.90;16.30;;;;;;;-3.01;62.62;98758.41;105757;1281;24340;-72
2022/03/07 04:28:55;;;;;;;30.70;16.80;;;;;;;-3.00;63.34;98760.67;105581;1281;137883;-72
2022/03/07 04:31:22;;;;;;;29.20;17.10;;;;;;;-3.00;63.72;98759.97;105791;1281;23435;-72
2022/03/07 04:33:49;;;;;;;29.70;16.00;;;;;;;-3.01;64.28;98759.46;105834;1280;25339;-72
2022/03/07 04:36:18;;;;;;;26.90;14.90;;;;;;;-3.01;64.63;98758.09;105604;1281;137680;-72
2022/03/07 04:38:46;;;;;;;26.50;15.40;;;;;;;-3.02;64.20;98757.32;105877;1280;24468;-72
2022/03/07 04:41:12;;;;;;;26.90;15.80;;;;;;;-3.07;64.89;98753.48;105628;1281;137979;-72
2022/03/07 04:43:38;;;;;;;31.10;16.30;;;;;;;-3.05;64.55;98753.16;105648;1281;29197;-72
2022/03/07 04:46:08;;;;;;;26.90;15.60;;;;;;;-3.07;64.25;98754.52;105627;1281;138336;-72
2022/03/07 04:48:35;;;;;;;22.00;13.50;;;;;;;-3.07;64.24;98760.80;105781;1281;22616;-72
2022/03/07 04:51:02;;;;;;;25.30;12.60;;;;;;;-3.08;64.14;98764.95;105800;1281;24277;-72
2022/03/07 04:53:28;;;;;;;27.00;15.60;;;;;;;-3.10;64.14;98761.60;106140;1281;137949;-72
2022/03/07 04:55:54;;;;;;;30.00;14.70;;;;;;;-3.11;64.57;98764.13;105957;1280;23351;-72
2022/03/07 04:58:20;;;;;;;28.90;15.00;;;;;;;-3.11;65.00;98764.17;105947;1280;139106;-72
2022/03/07 05:00:47;;;;;;;22.50;12.90;;;;;;;-3.11;65.13;98766.52;105910;1280;22637;-72
2022/03/07 05:03:13;;;;;;;31.50;16.30;;;;;;;-3.11;65.02;98766.48;105834;1280;24279;-72
2022/03/07 05:05:40;;;;;;;31.90;16.50;;;;;;;-3.12;65.22;98764.41;105753;1281;137924;-72
2022/03/07 05:08:06;;;;;;;30.90;16.20;;;;;;;-3.12;65.41;98771.16;105764;1281;22537;-72
2022/03/07 05:10:33;;;;;;;29.80;16.40;;;;;;;-3.12;65.11;98775.97;105815;1281;138405;-72
2022/03/07 05:12:59;;;;;;;32.40;16.70;;;;;;;-3.12;65.47;98776.50;106025;1280;22618;-72
2022/03/07 05:15:25;;;;;;;28.10;15.90;;;;;;;-3.12;65.64;98779.33;105884;1280;22573;-72
2022/03/07 05:17:54;;;;;;;27.60;15.10;;;;;;;-3.12;64.94;98775.17;105648;1280;138027;-72
2022/03/07 05:20:22;;;;;;;28.30;15.40;;;;;;;-3.13;64.51;98770.96;105773;1281;23931;-72
2022/03/07 05:22:49;;;;;;;21.60;13.80;;;;;;;-3.14;64.01;98775.70;105881;1280;138206;-73
2022/03/07 05:25:17;;;;;;;33.70;18.60;;;;;;;-3.15;64.03;98779.55;105392;1281;22554;-73
2022/03/07 05:27:44;;;;;;;26.90;14.20;;;;;;;-3.16;64.76;98777.14;106016;1281;23293;-72
2022/03/07 05:30:17;;;;;;;29.80;16.40;;;;;;;-3.17;64.02;98781.30;105557;1281;137907;-72
2022/03/07 05:32:45;;;;;;;30.10;16.40;;;;;;;-3.18;63.52;98779.77;105940;1280;24273;-72
2022/03/07 05:35:12;;;;;;;33.10;18.00;;;;;;;-3.17;64.51;98782.94;105771;1280;138988;-72
2022/03/07 05:37:39;;;;;;;27.60;16.20;;;;;;;-3.16;64.61;98784.73;105844;1281;25363;-72
2022/03/07 05:40:07;;;;;;;28.70;16.10;;;;;;;-3.15;65.04;98786.02;105763;1280;137980;-72
2022/03/07 05:42:34;;;;;;;36.30;17.80;;;;;;;-3.14;64.38;98786.36;105671;1280;24214;-72
2022/03/07 05:45:03;;;;;;;33.80;17.20;;;;;;;-3.14;64.32;98792.91;105731;1281;24334;-72
2022/03/07 05:47:29;;;;;;;32.20;16.70;;;;;;;-3.14;64.57;98790.59;105738;1281;138248;-72
2022/03/07 05:49:56;;;;;;;31.10;16.50;;;;;;;-3.13;64.96;98795.83;106011;1281;24074;-72
2022/03/07 05:52:23;;;;;;;29.50;16.70;;;;;;;-3.14;64.76;98791.30;105706;1281;139129;-72
2022/03/07 05:54:49;;;;;;;30.70;16.70;;;;;;;-3.14;64.97;98793.23;106101;1281;22551;-72
2022/03/07 05:57:16;;;;;;;27.20;14.50;;;;;;;-3.13;65.24;98795.30;105928;1281;23013;-72
2022/03/07 05:59:43;;;;;;;28.50;17.40;;;;;;;-3.13;64.90;98796.54;105641;1281;137960;-72
2022/03/07 06:02:09;;;;;;;29.70;17.50;;;;;;;-3.13;64.99;98792.46;105932;1280;22600;-72
2022/03/07 06:04:35;;;;;;;29.10;16.80;;;;;;;-3.13;65.66;98792.95;105639;1281;138161;-72
2022/03/07 06:07:03;;;;;;;33.10;18.10;;;;;;;-3.10;65.59;98799.83;105889;1281;25350;-72
2022/03/07 06:09:29;;;;;;;30.80;17.90;;;;;;;-3.09;64.98;98798.10;106093;1281;25875;-72
2022/03/07 06:11:55;;;;;;;32.50;16.60;;;;;;;-3.07;65.86;98800.91;105607;1281;137901;-72
2022/03/07 06:14:22;;;;;;;29.80;15.90;;;;;;;-3.05;66.13;98806.45;105938;1281;22716;-72
2022/03/07 06:16:48;;;;;;;23.90;13.80;;;;;;;-3.02;66.57;98805.84;105880;1280;138005;-72
2022/03/07 06:19:14;;;;;;;29.60;17.00;;;;;;;-3.02;66.44;98801.82;105983;1279;22545;-72
2022/03/07 06:21:40;;;;;;;38.10;18.30;;;;;;;-3.01;66.91;98800.13;106004;1280;22542;-72
2022/03/07 06:24:08;;;;;;;32.20;18.70;;;;;;;-2.98;67.54;98800.05;105877;1280;137740;-73
2022/03/07 06:26:35;;;;;;;38.90;17.70;;;;;;;-2.96;66.97;98793.58;106065;1280;22574;-73
2022/03/07 06:29:03;;;;;;;33.60;17.40;;;;;;;-2.95;67.77;98795.44;105611;1281;138161;-73
2022/03/07 06:31:29;;;;;;;35.10;16.90;;;;;;;-2.92;68.57;98792.35;105777;1281;22591;-72
2022/03/07 06:33:55;;;;;;;33.50;17.70;;;;;;;-2.89;68.73;98797.91;105735;1281;138696;-72
2022/03/07 06:36:21;;;;;;;37.80;20.00;;;;;;;-2.89;69.02;98796.98;106114;1281;24249;-72
2022/03/07 06:38:48;;;;;;;42.00;21.50;;;;;;;-2.87;68.79;98796.48;106306;1281;22548;-72
2022/03/07 06:41:14;;;;;;;33.00;18.60;;;;;;;-2.81;69.56;98804.99;106055;1280;138375;-72
2022/03/07 06:43:40;;;;;;;35.40;19.80;;;;;;;-2.73;69.53;98799.91;106043;1280;24359;-72
2022/03/07 06:46:07;;;;;;;36.00;20.60;;;;;;;-2.64;68.90;98796.34;106053;1281;138233;-73
2022/03/07 06:48:48;;;;;;;34.80;19.20;;;;;;;-2.56;69.04;98790.57;105869;1281;25342;-72
2022/03/07 06:51:14;;;;;;;33.80;18.30;;;;;;;-2.50;68.66;98797.10;106115;1281;25067;-72
2022/03/07 06:53:40;;;;;;;38.70;19.50;;;;;;;-2.46;68.64;98799.90;106029;1281;138122;-72
2022/03/07 06:56:06;;;;;;;37.70;20.00;;;;;;;-2.43;68.97;98801.95;106027;1280;22715;-72
2022/03/07 06:58:33;;;;;;;34.30;19.10;;;;;;;-2.39;69.25;98801.89;105723;1281;138190;-72
2022/03/07 07:00:59;;;;;;;32.00;18.80;;;;;;;-2.37;69.41;98808.21;106151;1281;22567;-73
2022/03/07 07:03:25;;;;;;;33.00;19.10;;;;;;;-2.38;69.07;98802.81;105869;1281;22785;-72
2022/03/07 07:05:52;;;;;;;26.60;13.40;;;;;;;-2.36;69.54;98804.08;106078;1281;139207;-73
2022/03/07 07:08:34;;;;;;;34.00;16.70;;;;;;;-2.36;69.71;98811.71;105970;1280;24083;-73
2022/03/07 07:11:00;;;;;;;36.70;18.90;;;;;;;-2.35;70.07;98813.05;105836;1281;138587;-73
2022/03/07 07:13:41;;;;;;;39.80;18.90;;;;;;;-2.31;70.37;98815.39;105897;1281;22547;-73
2022/03/07 07:16:07;;;;;;;29.30;16.50;;;;;;;-2.26;70.64;98815.83;106349;1281;138193;-73
2022/03/07 07:18:48;;;;;;;27.40;16.80;;;;;;;-2.22;70.55;98821.69;105981;1280;22558;-73
2022/03/07 07:21:14;;;;;;;30.00;16.90;;;;;;;-2.19;70.61;98822.83;105970;1280;25248;-73
2022/03/07 07:23:40;;;;;;;26.70;15.80;;;;;;;-2.16;70.73;98821.12;105863;1280;137831;-72
2022/03/07 07:26:07;;;;;;;31.60;18.40;;;;;;;-2.19;70.50;98817.96;105931;1281;25399;-73
2022/03/07 07:28:34;;;;;;;24.10;14.60;;;;;;;-2.22;70.47;98815.66;105675;1281;138145;-73
2022/03/07 07:31:00;;;;;;;26.40;16.10;;;;;;;-2.22;70.30;98820.04;105819;1281;25601;-73
2022/03/07 07:33:26;;;;;;;28.50;17.20;;;;;;;-2.23;70.45;98825.36;105614;1281;22619;-73
2022/03/07 07:35:53;;;;;;;24.20;14.20;;;;;;;-2.22;70.37;98825.23;105705;1281;138050;-73
2022/03/07 07:38:21;;;;;;;32.80;17.10;;;;;;;-2.21;70.26;98829.27;105751;1281;22552;-73
2022/03/07 07:40:51;;;;;;;27.70;14.60;;;;;;;-2.22;70.15;98823.27;105762;1280;138107;-72
2022/03/07 07:43:17;;;;;;;37.80;19.50;;;;;;;-2.22;70.13;98823.96;106225;1280;24249;-72
2022/03/07 07:45:43;;;;;;;23.70;14.00;;;;;;;-2.20;70.61;98826.29;106285;1281;22578;-73
2022/03/07 07:48:10;;;;;;;31.40;15.60;;;;;;;-2.18;70.44;98815.58;105772;1281;137695;-73
2022/03/07 07:50:36;;;;;;;30.70;17.00;;;;;;;-2.15;70.69;98818.66;105696;1281;24437;-73
2022/03/07 07:53:03;;;;;;;31.80;17.50;;;;;;;-2.12;70.42;98814.25;105679;1281;138324;-73
2022/03/07 07:55:29;;;;;;;29.90;16.10;;;;;;;-2.06;70.14;98814.04;105874;1281;23449;-73
2022/03/07 07:57:55;;;;;;;30.80;15.80;;;;;;;-1.98;70.28;98809.88;105933;1281;138320;-73
2022/03/07 08:00:22;;;;;;;28.00;14.50;;;;;;;-1.91;69.80;98810.18;105999;1281;23960;-73
2022/03/07 08:02:49;;;;;;;33.00;17.20;;;;;;;-1.84;69.78;98806.34;106016;1281;22572;-73
2022/03/07 08:05:18;;;;;;;28.80;15.20;;;;;;;-1.78;69.74;98807.58;105967;1281;138125;-73
2022/03/07 08:07:45;;;;;;;27.70;15.90;;;;;;;-1.73;69.56;98806.89;105978;1281;23068;-73
2022/03/07 08:10:13;;;;;;;27.50;15.60;;;;;;;-1.66;69.31;98807.17;105843;1281;138249;-72
2022/03/07 08:12:39;;;;;;;30.40;15.80;;;;;;;-1.62;69.06;98808.45;105940;1281;23002;-72
2022/03/07 08:15:11;;;;;;;19.70;10.50;;;;;;;-1.58;68.57;98809.46;105783;1281;23378;-72
2022/03/07 08:17:46;;;;;;;25.80;13.70;;;;;;;-1.54;68.04;98809.98;105914;1281;137754;-73
2022/03/07 08:20:14;;;;;;;24.40;13.70;;;;;;;-1.50;67.58;98811.17;105930;1281;22577;-73
2022/03/07 08:22:43;;;;;;;25.00;14.60;;;;;;;-1.49;67.02;98811.98;105844;1281;137993;-73
2022/03/07 08:25:10;;;;;;;24.10;14.80;;;;;;;-1.49;67.02;98806.47;106236;1281;22573;-73
2022/03/07 08:27:36;;;;;;;29.80;14.10;;;;;;;-1.43;67.70;98806.50;105963;1281;24292;-73
2022/03/07 08:30:07;;;;;;;30.30;16.00;;;;;;;-1.36;67.28;98800.48;105392;1281;138083;-73
2022/03/07 08:32:35;;;;;;;28.40;14.90;;;;;;;-1.26;67.39;98803.20;105640;1281;22547;-75
2022/03/07 08:35:02;;;;;;;23.60;14.60;;;;;;;-1.14;67.08;98805.33;105786;1281;138315;-73
2022/03/07 08:37:28;;;;;;;25.40;12.70;;;;;;;-1.05;66.87;98804.37;105900;1281;24368;-73
2022/03/07 08:39:55;;;;;;;24.70;14.40;;;;;;;-0.99;66.17;98798.48;105990;1281;22572;-74
2022/03/07 08:42:21;;;;;;;27.20;15.20;;;;;;;-0.93;66.21;98798.80;105878;1281;138199;-74
2022/03/07 08:44:48;;;;;;;27.90;15.80;;;;;;;-0.88;65.74;98793.16;105811;1281;24393;-74
2022/03/07 08:47:14;;;;;;;25.10;14.50;;;;;;;-0.81;65.83;98797.13;105756;1281;137948;-74
2022/03/07 08:49:40;;;;;;;28.60;16.50;;;;;;;-0.77;65.96;98793.73;105874;1281;24236;-74
2022/03/07 08:52:07;;;;;;;22.70;13.50;;;;;;;-0.72;65.46;98797.34;106004;1281;138039;-74
2022/03/07 08:54:33;;;;;;;25.30;14.40;;;;;;;-0.72;65.25;98800.45;105823;1281;23694;-76
2022/03/07 08:57:00;;;;;;;21.70;13.70;;;;;;;-0.68;65.79;98802.20;106230;1281;22565;-73
2022/03/07 08:59:28;;;;;;;25.80;14.00;;;;;;;-0.66;64.81;98801.47;105888;1281;138008;-73
2022/03/07 09:01:57;;;;;;;21.70;13.30;;;;;;;-0.66;64.75;98805.21;105762;1280;24319;-73
2022/03/07 09:04:25;;;;;;;22.90;14.20;;;;;;;-0.69;63.84;98801.36;105990;1280;138496;-72
2022/03/07 09:06:52;;;;;;;25.00;14.50;;;;;;;-0.70;63.92;98800.84;105914;1280;22740;-72
2022/03/07 09:09:18;;;;;;;24.90;14.40;;;;;;;-0.66;64.66;98803.91;105731;1281;22537;-71
2022/03/07 09:11:45;;;;;;;25.30;14.30;;;;;;;-0.57;64.24;98795.99;105780;1279;137761;-71
2022/03/07 09:14:12;;;;;;;23.50;14.00;;;;;;;-0.48;63.92;98802.89;105840;1281;22538;-71
2022/03/07 09:16:38;;;;;;;21.70;14.00;;;;;;;-0.41;63.31;98799.33;106024;1280;538498;-71
2022/03/07 09:19:04;;;;;;;27.20;15.10;;;;;;;-0.32;63.65;98795.11;105885;1281;25232;-71
2022/03/07 09:21:31;;;;;;;22.60;14.20;;;;;;;-0.23;64.07;98794.08;107003;1280;24364;-71
2022/03/07 09:23:57;;;;;;;28.00;13.50;;;;;;;-0.16;62.34;98796.48;106216;1280;137998;-71
2022/03/07 09:26:24;;;;;;;20.60;10.90;;;;;;;-0.15;60.68;98794.92;106464;1280;22573;-71
2022/03/07 09:28:50;;;;;;;19.30;11.00;;;;;;;-0.11;59.87;98791.27;105810;1281;138264;-72
2022/03/07 09:31:16;;;;;;;20.30;9.20;;;;;;;-0.07;59.66;98788.28;106162;1281;24307;-72
2022/03/07 09:33:43;;;;;;;16.60;10.40;;;;;;;-0.04;58.81;98788.48;106055;1281;25272;-72
2022/03/07 09:36:09;;;;;;;18.10;9.80;;;;;;;0.00;58.56;98785.73;105876;1281;138027;-72
2022/03/07 09:38:36;;;;;;;18.80;11.30;;;;;;;0.03;57.12;98789.48;106608;1280;25603;-73
2022/03/07 09:41:04;;;;;;;19.80;10.10;;;;;;;0.06;57.17;98786.73;106184;1280;137592;-73
2022/03/07 09:43:31;;;;;;;15.60;9.30;;;;;;;0.11;57.45;98788.83;106796;1280;22583;-73
2022/03/07 09:46:04;;;;;;;15.00;8.70;;;;;;;0.17;56.04;98788.68;106508;1280;22551;-73
2022/03/07 09:48:31;;;;;;;12.20;7.50;;;;;;;0.18;55.49;98795.14;105993;1279;137763;-73
2022/03/07 09:50:58;;;;;;;14.00;8.00;;;;;;;0.21;55.57;98795.23;106164;1281;22581;-73
2022/03/07 09:53:24;;;;;;;12.80;8.50;;;;;;;0.22;55.57;98797.85;106376;1280;137441;-73
2022/03/07 09:55:51;;;;;;;15.10;9.40;;;;;;;0.20;54.73;98800.73;106233;1281;22648;-73
2022/03/07 09:58:18;;;;;;;15.50;8.40;;;;;;;0.21;55.35;98802.20;106179;1279;137742;-73
2022/03/07 10:00:44;;;;;;;17.50;9.20;;;;;;;0.24;55.73;98801.70;106423;1280;22575;-74
2022/03/07 10:03:14;;;;;;;16.90;9.40;;;;;;;0.32;56.24;98800.32;106241;1280;22830;-74
2022/03/07 10:05:48;;;;;;;15.50;8.10;;;;;;;0.38;56.11;98797.22;106191;1280;137499;-74
2022/03/07 10:08:25;;;;;;;11.20;7.10;;;;;;;0.43;54.87;98798.52;106381;1280;25274;-74
2022/03/07 10:10:53;;;;;;;11.80;8.00;;;;;;;0.48;55.22;98796.36;105653;1282;137572;-74
2022/03/07 10:13:21;;;;;;;12.60;7.80;;;;;;;0.55;54.95;98797.27;106424;1281;22553;-74
2022/03/07 10:16:00;;;;;;;9.00;6.40;;;;;;;0.59;54.75;98795.81;106385;1281;22600;-72
2022/03/07 10:18:27;;;;;;;12.00;6.90;;;;;;;0.64;55.22;98796.14;106163;1280;137446;-75
2022/03/07 10:20:57;;;;;;;11.60;7.20;;;;;;;0.66;54.78;98791.35;106280;1280;23250;-73
2022/03/07 10:23:27;;;;;;;12.60;6.90;;;;;;;0.70;55.00;98789.02;106369;1279;137380;-73
2022/03/07 10:26:08;;;;;;;12.40;6.20;;;;;;;0.81;55.19;98787.77;105931;1280;26609;-73
2022/03/07 10:28:36;;;;;;;9.10;5.50;;;;;;;0.88;54.75;98788.80;105874;1280;137730;-74
2022/03/07 10:31:13;;;;;;;10.70;6.50;;;;;;;0.91;54.72;98784.30;105965;1279;25510;-73
2022/03/07 10:33:40;;;;;;;9.00;6.00;;;;;;;0.99;55.23;98793.97;105925;1281;24439;-73
2022/03/07 10:36:06;;;;;;;8.20;4.50;;;;;;;1.03;54.36;98787.49;105777;1281;137205;-74
2022/03/07 10:38:32;;;;;;;13.10;6.20;;;;;;;1.05;54.36;98787.21;105887;1280;22558;-74
2022/03/07 10:40:59;;;;;;;13.50;6.10;;;;;;;1.09;54.35;98786.38;105821;1280;137507;-74
2022/03/07 10:43:25;;;;;;;12.50;6.60;;;;;;;1.05;53.35;98787.40;106076;1280;22565;-74
2022/03/07 10:46:00;;;;;;;12.70;5.60;;;;;;;1.01;54.34;98787.02;105951;1280;22678;-74
2022/03/07 10:48:30;;;;;;;8.60;4.60;;;;;;;1.02;54.75;98787.96;105830;1280;137916;-74
2022/03/07 10:50:58;;;;;;;7.70;4.50;;;;;;;0.99;53.76;98785.06;105606;1281;30811;-74
2022/03/07 10:53:26;;;;;;;9.00;4.60;;;;;;;0.97;53.34;98783.83;105562;1281;137146;-74
2022/03/07 10:56:00;;;;;;;7.50;4.40;;;;;;;0.99;54.15;98779.13;105867;1281;25342;-74
2022/03/07 10:58:27;;;;;;;9.80;6.30;;;;;;;1.01;53.31;98776.84;105865;1281;138180;-75
2022/03/07 11:01:01;;;;;;;10.50;6.40;;;;;;;0.99;54.10;98774.20;105995;1280;22566;-75
2022/03/07 11:03:30;;;;;;;9.80;5.80;;;;;;;0.96;54.33;98770.88;106040;1280;22594;-75
2022/03/07 11:05:58;;;;;;;7.30;5.20;;;;;;;0.96;54.91;98769.79;105662;1281;137530;-75
2022/03/07 11:08:25;;;;;;;13.40;6.50;;;;;;;1.01;54.51;98768.95;105922;1280;22541;-75
2022/03/07 11:10:56;;;;;;;12.10;6.70;;;;;;;1.08;54.80;98759.91;106038;1280;137493;-75